Time;durP1;ratioP1;P1;durP2;ratioP2;P2;SDS_P1;SDS_P2;PMS_P1;PMS_P2;Temp;Humidity;BMP_temperature;BMP_pressure;BME280_temperature;BME280_humidity;BME280_pressure;Samples;Min_cycle;Max_cycle;Signal;HPM_P1;HPM_P2
2021/08/01 03:17:29;;;;;;;;;;;;;;;6.03;95.58;98996.88;5038540;28;19932;-91
2021/08/01 03:19:55;;;;;;;;;;;;;;;5.94;96.08;98993.66;5039884;28;19921;-91
2021/08/01 03:22:22;;;;;;;;;;;;;;;6.09;96.91;98986.16;5040446;28;19921;-90
2021/08/01 03:27:13;;;;;;;;;;;;;;;6.10;100.00;98987.88;5072474;22;19932;-92
2021/08/01 03:29:38;;;;;;;;;;;;;;;6.31;100.00;98984.41;5041402;28;19925;-91
2021/08/01 03:32:11;;;;;;;;;;;;;;;6.11;100.00;98984.31;5041869;28;20296;-93
2021/08/01 03:34:36;;;;;;;;;;;;;;;6.34;100.00;98986.09;5058476;28;20219;-91
2021/08/01 03:37:02;;;;;;;;;;;;;;;6.23;100.00;98994.38;5039132;28;19925;-91
2021/08/01 03:39:33;;;;;;;;;;;;;;;6.16;100.00;98995.53;5040023;28;19929;-92
2021/08/01 03:41:58;;;;;;;;;;;;;;;6.24;100.00;98989.97;5039808;28;19925;-90
2021/08/01 03:44:24;;;;;;;;;;;;;;;6.22;100.00;98997.91;5039168;28;19925;-90
2021/08/01 03:46:49;;;;;;;;;;;;;;;6.39;100.00;98999.91;5039390;28;19988;-90
2021/08/01 03:49:14;;;;;;;;;;;;;;;6.33;100.00;98993.13;5040088;28;19947;-89
2021/08/01 03:51:40;;;;;;;;;;;;;;;6.27;99.71;98989.84;5039980;28;20268;-90
2021/08/01 03:54:05;;;;;;;;;;;;;;;6.55;100.00;98992.28;5039193;28;19921;-91
2021/08/01 03:56:30;;;;;;;;;;;;;;;6.95;100.00;98998.59;5042299;28;20200;-91
2021/08/01 03:58:56;;;;;;;;;;;;;;;6.95;100.00;98985.44;5039524;28;19988;-87
2021/08/01 04:01:21;;;;;;;;;;;;;;;6.68;100.00;98985.59;5039868;28;19928;-88
2021/08/01 04:03:46;;;;;;;;;;;;;;;6.79;100.00;98986.97;5039306;28;19940;-89
2021/08/01 04:06:12;;;;;;;;;;;;;;;6.71;100.00;98992.53;5038402;28;20268;-88
2021/08/01 04:08:37;;;;;;;;;;;;;;;6.70;100.00;98981.16;5039833;28;19925;-88
2021/08/01 04:11:05;;;;;;;;;;;;;;;6.82;100.00;98986.84;5039615;28;19921;-87
2021/08/01 04:13:31;;;;;;;;;;;;;;;7.20;100.00;98981.78;5039288;28;19921;-90
2021/08/01 04:15:56;;;;;;;;;;;;;;;7.39;100.00;98982.72;5038174;28;19921;-89
2021/08/01 04:18:22;;;;;;;;;;;;;;;7.38;100.00;98981.00;5037772;28;19925;-89
2021/08/01 04:20:47;;;;;;;;;;;;;;;7.51;100.00;98991.03;5038479;28;20227;-88
2021/08/01 04:23:12;;;;;;;;;;;;;;;7.41;100.00;98988.78;5039157;28;19932;-88
2021/08/01 04:25:38;;;;;;;;;;;;;;;7.40;100.00;98986.22;5039094;28;19921;-89
2021/08/01 04:28:06;;;;;;;;;;;;;;;7.20;100.00;98981.78;5037348;28;19921;-90
2021/08/01 04:30:31;;;;;;;;;;;;;;;7.16;100.00;98975.78;5038362;28;20354;-89
2021/08/01 04:32:56;;;;;;;;;;;;;;;6.96;100.00;98984.50;5037593;28;20038;-88
2021/08/01 04:35:22;;;;;;;;;;;;;;;7.05;100.00;98984.16;5038649;28;19921;-89
2021/08/01 04:37:47;;;;;;;;;;;;;;;7.04;100.00;98985.06;5038867;28;19976;-88
2021/08/01 04:40:13;;;;;;;;;;;;;;;6.90;100.00;98992.66;5038067;28;19928;-89
2021/08/01 04:42:38;;;;;;;;;;;;;;;6.86;100.00;98985.78;5054386;28;19921;-88
2021/08/01 04:45:03;;;;;;;;;;;;;;;6.67;100.00;98986.53;5038573;28;20119;-89
2021/08/01 04:47:29;;;;;;;;;;;;;;;6.79;100.00;98984.34;5037702;28;19933;-88
2021/08/01 04:49:54;;;;;;;;;;;;;;;6.81;100.00;98990.41;5038221;28;20232;-90
2021/08/01 04:52:19;;;;;;;;;;;;;;;6.71;100.00;98987.28;5037777;28;19960;-88
2021/08/01 04:54:45;;;;;;;;;;;;;;;6.48;100.00;98990.81;5038356;28;19990;-89
2021/08/01 04:57:11;;;;;;;;;;;;;;;6.61;100.00;98986.78;5037901;28;20312;-87
2021/08/01 04:59:36;;;;;;;;;;;;;;;6.40;100.00;98991.13;5038169;28;20181;-89
2021/08/01 05:02:02;;;;;;;;;;;;;;;6.54;100.00;98998.47;5037848;28;20070;-90
2021/08/01 05:04:28;;;;;;;;;;;;;;;6.71;100.00;98998.66;5039310;28;19921;-92
2021/08/01 05:06:53;;;;;;;;;;;;;;;6.66;100.00;99005.88;5039935;28;20342;-93
2021/08/01 13:01:40;;;;;;;;;;;;;;;6.44;99.71;99003.22;5058335;28;19986;-89
2021/08/01 13:04:07;;;;;;;;;;;;;;;6.30;99.33;99009.03;5059572;28;19928;-90
2021/08/01 13:06:33;;;;;;;;;;;;;;;6.47;98.82;99012.78;5057307;28;19931;-89
2021/08/01 13:09:03;;;;;;;;;;;;;;;6.35;98.66;99019.34;5040446;28;19924;-89
2021/08/01 13:11:33;;;;;;;;;;;;;;;6.38;99.42;99013.13;5057650;28;19929;-90
2021/08/01 13:14:08;;;;;;;;;;;;;;;6.39;97.96;99012.22;5040149;28;19927;-89
2021/08/01 13:16:49;;;;;;;;;;;;;;;6.52;98.08;99005.56;5056026;28;20195;-91
2021/08/01 13:19:17;;;;;;;;;;;;;;;6.67;96.57;99010.25;5041058;28;19924;-90
2021/08/01 13:22:02;;;;;;;;;;;;;;;6.62;96.47;99012.19;5041073;28;19931;-91
2021/08/01 13:24:31;;;;;;;;;;;;;;;6.51;97.18;99019.63;5057912;28;20328;-89
2021/08/01 13:27:01;;;;;;;;;;;;;;;6.48;97.24;99025.03;5057090;28;19925;-92
2021/08/01 13:29:26;;;;;;;;;;;;;;;6.27;97.62;99017.03;5055189;28;19967;-91
2021/08/01 13:31:52;;;;;;;;;;;;;;;6.33;96.68;99022.06;5038972;28;19960;-91
2021/08/01 13:34:18;;;;;;;;;;;;;;;6.49;96.31;99016.22;5037303;28;19921;-91
2021/08/01 13:36:46;;;;;;;;;;;;;;;6.51;96.77;99023.13;5056996;28;19921;-89
2021/08/01 13:39:15;;;;;;;;;;;;;;;6.61;95.83;99033.31;5040027;28;19920;-90
2021/08/01 13:41:41;;;;;;;;;;;;;;;6.51;96.68;99032.78;5040851;28;19920;-89
2021/08/01 13:44:13;;;;;;;;;;;;;;;6.57;96.37;99029.91;5042758;28;19920;-90
2021/08/01 13:46:39;;;;;;;;;;;;;;;6.35;97.57;99024.63;5030946;28;19937;-90
2021/08/01 13:49:05;;;;;;;;;;;;;;;6.38;96.66;99029.75;5038891;28;19921;-90
2021/08/01 13:51:32;;;;;;;;;;;;;;;6.21;97.17;99034.78;5057100;28;19929;-90
2021/08/01 13:53:57;;;;;;;;;;;;;;;6.40;96.43;99037.59;5041099;28;19924;-89
2021/08/01 13:56:24;;;;;;;;;;;;;;;6.32;96.88;99038.75;5056043;28;19921;-89
2021/08/01 13:58:55;;;;;;;;;;;;;;;6.30;97.37;99037.97;5056461;28;22928;-92
2021/08/01 14:01:20;;;;;;;;;;;;;;;6.24;97.53;99034.69;5039783;28;19921;-89
2021/08/01 14:03:46;;;;;;;;;;;;;;;6.60;100.00;99028.97;5040351;28;19924;-90
2021/08/01 14:06:13;;;;;;;;;;;;;;;6.45;98.00;99035.69;5037522;28;19925;-89
2021/08/01 14:08:39;;;;;;;;;;;;;;;6.42;98.39;99035.78;5055904;28;20023;-91
2021/08/01 14:11:07;;;;;;;;;;;;;;;6.36;98.04;99037.72;5040368;28;20007;-89
2021/08/01 14:13:32;;;;;;;;;;;;;;;6.38;97.74;99037.66;5053938;28;20211;-90
2021/08/01 14:15:57;;;;;;;;;;;;;;;6.44;97.73;99033.94;5057042;28;19920;-89
2021/08/01 14:18:24;;;;;;;;;;;;;;;6.34;98.68;99039.56;5038037;28;20477;-89
2021/08/01 14:20:54;;;;;;;;;;;;;;;6.31;98.31;99028.28;5038572;28;19947;-89
2021/08/01 14:23:21;;;;;;;;;;;;;;;6.42;97.35;99022.63;5038787;28;20007;-89
2021/08/01 14:25:54;;;;;;;;;;;;;;;6.43;98.97;99029.59;5037688;28;19975;-90
2021/08/01 14:28:23;;;;;;;;;;;;;;;6.60;97.92;99019.28;5038357;28;19917;-90
2021/08/01 14:30:49;;;;;;;;;;;;;;;6.43;97.36;99022.56;5035131;28;20000;-90
2021/08/01 14:33:15;;;;;;;;;;;;;;;6.54;97.74;99022.13;5054812;28;19916;-89
2021/08/01 14:35:44;;;;;;;;;;;;;;;6.58;97.81;99023.75;5053184;28;20007;-91
2021/08/01 14:38:10;;;;;;;;;;;;;;;6.75;97.24;99027.50;5040308;28;19986;-89
2021/08/01 14:40:38;;;;;;;;;;;;;;;6.63;96.98;99021.78;5041835;28;20051;-89
2021/08/01 14:43:04;;;;;;;;;;;;;;;6.50;98.40;99033.72;5055641;28;19931;-91
2021/08/01 14:45:29;;;;;;;;;;;;;;;6.50;98.82;99039.00;5056413;28;19917;-90
2021/08/01 14:47:58;;;;;;;;;;;;;;;6.49;98.82;99032.00;5056246;28;19928;-89
2021/08/01 14:50:38;;;;;;;;;;;;;;;6.60;97.81;99024.53;5056897;28;19917;-90
2021/08/01 14:53:05;;;;;;;;;;;;;;;6.81;99.31;99037.78;5059607;28;20011;-90
2021/08/01 14:55:34;;;;;;;;;;;;;;;6.60;97.89;99039.50;5042467;28;19970;-93
2021/08/01 14:58:20;;;;;;;;;;;;;;;6.60;97.75;99044.75;5060985;28;20405;-91
2021/08/01 15:00:57;;;;;;;;;;;;;;;6.77;97.43;99052.00;5035701;28;20321;-90
2021/08/01 15:03:41;;;;;;;;;;;;;;;6.76;98.81;99050.28;5061705;28;19924;-90
2021/08/01 15:06:07;;;;;;;;;;;;;;;6.72;96.99;99053.03;5061408;28;19921;-91
2021/08/01 15:08:35;;;;;;;;;;;;;;;6.66;96.64;99050.63;5044345;28;20367;-90
2021/08/01 15:11:09;;;;;;;;;;;;;;;6.53;97.60;99047.63;5060042;28;20283;-90
2021/08/01 15:13:37;;;;;;;;;;;;;;;6.81;97.10;99054.47;5059126;28;19916;-90
2021/08/01 15:16:05;;;;;;;;;;;;;;;6.67;98.71;99049.72;5040614;28;19943;-90
2021/08/01 15:18:32;;;;;;;;;;;;;;;6.82;97.93;99050.06;5033910;28;19930;-91
2021/08/01 15:21:00;;;;;;;;;;;;;;;6.61;98.06;99042.06;5046883;28;20311;-89
2021/08/01 15:23:33;;;;;;;;;;;;;;;6.66;97.01;99050.63;5060446;28;19921;-90
2021/08/01 15:26:01;;;;;;;;;;;;;;;6.70;96.62;99049.63;5043285;28;20258;-90
2021/08/01 15:28:27;;;;;;;;;;;;;;;6.61;96.54;99049.97;5041158;28;19963;-91
2021/08/01 15:30:52;;;;;;;;;;;;;;;6.58;96.59;99052.72;5029557;28;19982;-90
2021/08/01 15:33:26;;;;;;;;;;;;;;;6.61;98.33;99042.06;5040561;28;20281;-89
2021/08/01 15:36:00;;;;;;;;;;;;;;;6.81;95.94;99051.84;5026118;28;21039;-89
2021/08/01 15:38:25;;;;;;;;;;;;;;;6.88;96.72;99055.09;5040704;28;19931;-90
2021/08/01 15:40:51;;;;;;;;;;;;;;;6.72;96.51;99047.78;5042791;28;19921;-90
2021/08/01 15:43:20;;;;;;;;;;;;;;;6.80;96.82;99044.00;5059869;28;19917;-91
2021/08/01 15:45:46;;;;;;;;;;;;;;;6.67;97.93;99049.72;5057346;28;19921;-91
2021/08/01 15:48:22;;;;;;;;;;;;;;;6.65;96.84;99042.78;5059936;28;20327;-89
2021/08/01 15:50:54;;;;;;;;;;;;;;;6.73;96.73;99038.97;5034085;28;20014;-90
2021/08/01 15:53:37;;;;;;;;;;;;;;;6.62;96.69;99041.16;5036692;28;19921;-91
2021/08/01 15:56:08;;;;;;;;;;;;;;;6.65;97.58;99048.94;5037247;28;20010;-91
2021/08/01 15:58:58;;;;;;;;;;;;;;;6.66;96.31;99045.38;5035921;28;19929;-91
2021/08/01 16:01:38;;;;;;;;;;;;;;;6.66;96.98;99050.63;5040684;28;19917;-89
2021/08/01 16:04:42;;;;;;;;;;;;;;;;;;;;;
2021/08/01 16:07:29;;;;;;;;;;;;;;;6.79;97.34;99051.00;5050909;28;20184;-89
2021/08/01 16:10:04;;;;;;;;;;;;;;;6.88;95.74;99050.66;5055446;28;19956;-90
2021/08/01 16:12:33;;;;;;;;;;;;;;;6.67;95.91;99057.63;5047798;28;19921;-90
2021/08/01 16:15:12;;;;;;;;;;;;;;;6.79;95.49;99051.00;5045619;28;19943;-91
2021/08/01 16:17:41;;;;;;;;;;;;;;;6.59;95.71;99054.44;5048325;28;19921;-90
2021/08/01 16:20:07;;;;;;;;;;;;;;;6.53;95.94;99046.78;5073271;28;20015;-90
2021/08/01 16:22:39;;;;;;;;;;;;;;;6.64;96.24;99049.00;5062050;28;19925;-90
2021/08/01 16:25:09;;;;;;;;;;;;;;;6.59;95.80;99048.28;5045438;28;19964;-89
2021/08/01 16:27:39;;;;;;;;;;;;;;;6.91;95.01;99044.44;5067993;28;19938;-90
2021/08/01 16:30:13;;;;;;;;;;;;;;;6.68;94.86;99043.53;5046755;28;19920;-90
2021/08/01 16:33:06;;;;;;;;;;;;;;;6.55;96.18;99039.66;5049314;28;19923;-89
2021/08/01 16:35:36;;;;;;;;;;;;;;;6.54;96.27;99041.44;5037698;28;21281;-89
2021/08/01 16:38:01;;;;;;;;;;;;;;;6.53;96.91;99052.03;5066140;28;19932;-91
2021/08/01 16:40:27;;;;;;;;;;;;;;;6.54;97.36;99046.72;5058526;28;19921;-89
2021/08/01 16:46:08;;;;;;;;;;;;;;;6.82;95.33;99050.91;5069159;28;19917;-90
2021/08/01 16:48:48;;;;;;;;;;;;;;;6.68;96.76;99046.16;5057986;28;20288;-92
2021/08/01 16:54:06;;;;;;;;;;;;;;;6.70;95.17;99062.78;5050154;28;19939;-90
2021/08/01 16:56:43;;;;;;;;;;;;;;;6.58;97.00;99052.72;5039418;28;19921;-89
2021/08/01 16:59:16;;;;;;;;;;;;;;;6.75;95.22;99054.72;5050279;28;19925;-89
2021/08/01 17:01:44;;;;;;;;;;;;;;;6.86;95.74;99062.16;5056310;28;19945;-90
2021/08/01 17:04:09;;;;;;;;;;;;;;;6.82;94.78;99065.84;5057422;28;19924;-90
2021/08/01 17:07:02;;;;;;;;;;;;;;;;;;;;;
2021/08/01 17:09:29;;;;;;;;;;;;;;;6.62;95.76;99066.59;5072199;28;20230;-89
2021/08/01 17:12:06;;;;;;;;;;;;;;;6.75;95.65;99067.88;5047946;28;20280;-90
2021/08/01 17:14:32;;;;;;;;;;;;;;;6.84;95.71;99075.38;5051991;28;20235;-89
2021/08/01 17:16:57;;;;;;;;;;;;;;;6.85;96.74;99073.63;5057716;28;19978;-91
2021/08/01 17:19:26;;;;;;;;;;;;;;;6.81;96.14;99077.28;5046358;28;20207;-89
2021/08/01 17:21:53;;;;;;;;;;;;;;;6.83;96.09;99080.72;5046023;28;19999;-91
2021/08/01 17:24:20;;;;;;;;;;;;;;;6.82;96.10;99087.75;5058099;28;19925;-92
2021/08/01 17:26:45;;;;;;;;;;;;;;;6.52;96.08;99085.38;5055337;28;19925;-90
2021/08/01 17:29:14;;;;;;;;;;;;;;;6.75;95.85;99093.31;5060556;28;20206;-90
2021/08/01 17:31:53;;;;;;;;;;;;;;;6.75;95.29;99095.94;5054684;28;19928;-89
2021/08/01 17:34:23;;;;;;;;;;;;;;;6.84;95.38;99090.34;5054265;28;19995;-91
2021/08/01 17:36:55;;;;;;;;;;;;;;;6.70;95.84;99094.38;5053799;28;20275;-90
2021/08/01 17:39:31;;;;;;;;;;;;;;;6.83;95.32;99099.16;5055683;28;19920;-90
2021/08/01 17:42:01;;;;;;;;;;;;;;;6.69;94.47;99097.91;5065727;28;20125;-90
2021/08/01 17:44:29;;;;;;;;;;;;;;;6.76;95.47;99093.25;5059948;28;19929;-89
2021/08/01 17:47:16;;;;;;;;;;;;;;;6.71;96.16;99096.06;5073187;28;19932;-89
2021/08/01 17:49:46;;;;;;;;;;;;;;;6.77;94.58;99096.78;5044087;28;20260;-90
2021/08/01 17:52:15;;;;;;;;;;;;;;;6.67;95.20;99093.59;5072121;28;20250;-91
2021/08/01 17:54:41;;;;;;;;;;;;;;;6.68;94.54;99085.66;5046420;28;20217;-90
2021/08/01 17:57:17;;;;;;;;;;;;;;;6.62;95.33;99101.72;5061081;28;19924;-89
2021/08/01 17:59:43;;;;;;;;;;;;;;;6.62;95.93;99095.56;5060743;28;19917;-89
2021/08/01 18:02:08;;;;;;;;;;;;;;;6.65;95.23;99106.84;5072122;28;19943;-91
2021/08/01 18:04:35;;;;;;;;;;;;;;;6.55;95.48;99130.00;5078427;28;20011;-91
2021/08/01 18:07:17;;;;;;;;;;;;;;;6.32;96.33;99130.84;5078688;28;19931;-90
2021/08/01 18:09:48;;;;;;;;;;;;;;;6.38;96.11;99128.91;5060724;28;19916;-91
2021/08/01 18:12:19;;;;;;;;;;;;;;;6.48;96.14;99146.09;5079675;28;20007;-92
2021/08/01 18:15:10;;;;;;;;;;;;;;;6.51;95.93;99151.22;5054303;28;19955;-93
2021/08/01 18:17:37;;;;;;;;;;;;;;;6.57;97.61;99166.81;5046700;28;19936;-91
2021/08/01 18:20:05;;;;;;;;;;;;;;;6.52;96.95;99168.75;5041255;28;19932;-90
2021/08/01 18:22:34;;;;;;;;;;;;;;;6.66;98.38;99176.16;5042697;28;19946;-90
2021/08/01 18:25:04;;;;;;;;;;;;;;;6.60;96.36;99185.13;5062282;28;19931;-90
2021/08/01 18:27:30;;;;;;;;;;;;;;;6.68;97.33;99200.66;5072353;28;19917;-92
2021/08/01 18:29:57;;;;;;;;;;;;;;;6.57;97.25;99194.91;5064781;28;19931;-90
2021/08/01 18:32:23;;;;;;;;;;;;;;;6.57;97.48;99193.13;5083122;28;19916;-92
2021/08/01 18:34:49;;;;;;;;;;;;;;;6.64;96.68;99188.53;5080366;28;19946;-91
2021/08/01 18:37:15;;;;;;;;;;;;;;;6.54;96.95;99204.66;5064437;28;19978;-90
2021/08/01 18:39:41;;;;;;;;;;;;;;;6.63;96.25;99213.13;5060584;28;19952;-92
2021/08/01 18:42:09;;;;;;;;;;;;;;;6.54;97.24;99204.66;5046293;28;19916;-92
2021/08/01 18:44:36;;;;;;;;;;;;;;;6.44;97.25;99218.19;5076224;28;19967;-91
2021/08/01 18:47:02;;;;;;;;;;;;;;;6.40;97.13;99221.81;5077118;28;20215;-91
2021/08/01 18:49:29;;;;;;;;;;;;;;;6.47;96.76;99233.84;5082592;28;19927;-92
2021/08/01 18:51:56;;;;;;;;;;;;;;;6.52;97.29;99226.66;5063541;28;19920;-92
2021/08/01 18:54:25;;;;;;;;;;;;;;;6.59;97.68;99237.81;5077263;28;19927;-91
2021/08/01 18:56:54;;;;;;;;;;;;;;;6.57;97.20;99240.50;5062315;28;19932;-91
2021/08/01 18:59:20;;;;;;;;;;;;;;;6.65;96.46;99237.59;5073006;28;19917;-90
2021/08/01 19:01:46;;;;;;;;;;;;;;;6.55;97.13;99251.09;5082858;28;19930;-90
2021/08/01 19:04:12;;;;;;;;;;;;;;;6.62;97.32;99243.88;5083810;28;19916;-91
2021/08/01 19:06:48;;;;;;;;;;;;;;;6.58;97.24;99241.38;5059365;28;19920;-90
2021/08/01 19:09:18;;;;;;;;;;;;;;;6.66;98.77;99245.47;5050440;28;20291;-89
2021/08/01 19:11:43;;;;;;;;;;;;;;;6.45;98.53;99254.13;5071823;28;19927;-92
2021/08/01 19:14:09;;;;;;;;;;;;;;;6.65;98.24;99238.50;5065525;28;20010;-90
2021/08/01 19:16:47;;;;;;;;;;;;;;;6.93;96.88;99240.13;5064512;28;19926;-91
2021/08/01 19:19:17;;;;;;;;;;;;;;;6.55;97.56;99231.81;5045379;28;19924;-91
2021/08/01 19:21:42;;;;;;;;;;;;;;;6.50;97.72;99239.03;5063544;28;19917;-90
2021/08/01 19:24:09;;;;;;;;;;;;;;;6.84;96.66;99237.81;5064334;28;19943;-89
2021/08/01 19:26:44;;;;;;;;;;;;;;;6.66;97.10;99236.72;5079905;28;19917;-91
2021/08/01 19:29:13;;;;;;;;;;;;;;;6.85;98.34;99244.81;5063682;28;19920;-91
2021/08/01 19:31:43;;;;;;;;;;;;;;;6.63;98.43;99249.97;5063256;28;19929;-91
2021/08/01 19:34:14;;;;;;;;;;;;;;;6.64;98.01;99255.19;5063806;28;19931;-91
2021/08/01 19:36:40;;;;;;;;;;;;;;;6.85;98.65;99263.25;5062052;28;19926;-92
2021/08/01 19:42:34;;;;;;;;;;;;;;;;;;;;;
2021/08/01 19:45:01;;;;;;;;;;;;;;;6.90;98.77;99269.19;5023820;28;20212;-90
2021/08/01 19:47:26;;;;;;;;;;;;;;;6.66;98.14;99265.66;5040497;28;20000;-92
2021/08/01 19:49:51;;;;;;;;;;;;;;;6.72;98.23;99271.56;5040671;28;19921;-90
2021/08/01 19:52:16;;;;;;;;;;;;;;;6.75;98.86;99265.34;5040223;28;20211;-90
2021/08/01 19:54:42;;;;;;;;;;;;;;;6.76;99.12;99274.94;5040621;28;19984;-90
2021/08/01 19:57:07;;;;;;;;;;;;;;;6.80;99.09;99275.72;5040489;28;19970;-89
2021/08/01 19:59:33;;;;;;;;;;;;;;;6.81;98.79;99273.03;5039727;28;19970;-92
2021/08/01 20:01:58;;;;;;;;;;;;;;;6.70;99.28;99281.31;5039539;28;19921;-91
2021/08/01 20:04:25;;;;;;;;;;;;;;;6.76;99.53;99277.59;5039615;28;19928;-91
2021/08/01 20:06:50;;;;;;;;;;;;;;;6.75;99.64;99282.91;5039660;28;20018;-91
2021/08/01 20:09:15;;;;;;;;;;;;;;;6.72;100.00;99287.38;5040049;28;20073;-91
2021/08/01 20:11:41;;;;;;;;;;;;;;;6.66;99.42;99282.31;5039547;28;20505;-92
2021/08/01 20:14:07;;;;;;;;;;;;;;;6.72;99.84;99282.09;5039319;28;19921;-91
2021/08/01 20:16:32;;;;;;;;;;;;;;;6.81;97.41;99280.94;5040217;28;20016;-91
2021/08/01 20:18:58;;;;;;;;;;;;;;;6.71;97.21;99290.06;5039978;28;19929;-91
2021/08/01 20:21:24;;;;;;;;;;;;;;;6.74;98.01;99284.69;5040409;28;20229;-91
2021/08/01 20:23:50;;;;;;;;;;;;;;;6.58;98.06;99284.34;5039722;28;19931;-90
2021/08/01 20:26:16;;;;;;;;;;;;;;;6.73;98.62;99280.31;5039766;28;19928;-90
2021/08/01 20:28:41;;;;;;;;;;;;;;;6.65;97.48;99288.50;5039368;28;20292;-89
2021/08/01 20:31:07;;;;;;;;;;;;;;;6.75;98.13;99285.53;5038863;28;19917;-89
2021/08/01 20:33:32;;;;;;;;;;;;;;;6.62;97.11;99288.63;5039377;28;19921;-93
2021/08/01 20:35:58;;;;;;;;;;;;;;;6.51;100.00;99283.72;5039758;28;20295;-92
2021/08/01 20:38:23;;;;;;;;;;;;;;;6.59;100.00;99285.22;5039466;28;19929;-92
2021/08/01 20:40:49;;;;;;;;;;;;;;;6.60;99.99;99285.16;5039910;28;20287;-90
2021/08/01 20:43:14;;;;;;;;;;;;;;;6.68;97.68;99288.38;5039428;28;19975;-91
2021/08/01 20:45:40;;;;;;;;;;;;;;;6.65;98.38;99293.78;5039029;28;20462;-92
2021/08/01 20:48:06;;;;;;;;;;;;;;;6.66;98.19;99295.47;5039094;28;20185;-92
2021/08/01 20:50:31;;;;;;;;;;;;;;;6.84;96.42;99303.66;5039588;28;19924;-91
2021/08/01 20:52:56;;;;;;;;;;;;;;;6.70;97.91;99299.75;5039144;28;20304;-91
2021/08/01 20:55:22;;;;;;;;;;;;;;;6.71;98.33;99309.34;5039349;28;20240;-91
2021/08/01 20:57:48;;;;;;;;;;;;;;;6.77;97.62;99326.72;5038530;28;19936;-90
2021/08/01 21:00:13;;;;;;;;;;;;;;;6.63;98.34;99335.06;5039310;28;19925;-90
2021/08/01 21:02:38;;;;;;;;;;;;;;;6.84;96.11;99335.25;5038165;28;19921;-91
2021/08/01 21:05:04;;;;;;;;;;;;;;;6.71;96.50;99327.78;5038144;28;19921;-90
2021/08/01 21:07:29;;;;;;;;;;;;;;;6.68;97.60;99322.59;5038866;28;20280;-90
2021/08/01 21:09:55;;;;;;;;;;;;;;;6.75;96.43;99317.13;5038650;28;19928;-90
2021/08/01 21:12:21;;;;;;;;;;;;;;;6.78;96.68;99314.41;5039005;28;19917;-90
2021/08/01 21:14:46;;;;;;;;;;;;;;;6.73;97.91;99319.81;5039133;28;20006;-91
2021/08/01 21:17:11;;;;;;;;;;;;;;;6.69;96.45;99321.69;5037530;28;19917;-92
2021/08/01 21:19:37;;;;;;;;;;;;;;;6.68;96.80;99327.03;5039134;28;19925;-92
2021/08/01 21:22:03;;;;;;;;;;;;;;;6.77;97.30;99323.22;5038762;28;19921;-92
2021/08/01 21:24:28;;;;;;;;;;;;;;;6.58;98.04;99310.69;5038627;28;19917;-91
2021/08/01 21:26:54;;;;;;;;;;;;;;;6.64;98.50;99304.38;5039283;28;20220;-91
2021/08/01 21:29:19;;;;;;;;;;;;;;;6.67;97.06;99304.22;5038381;28;19952;-91
2021/08/01 21:31:44;;;;;;;;;;;;;;;6.79;96.86;99303.81;5039547;28;19921;-91
2021/08/01 21:34:10;;;;;;;;;;;;;;;6.69;97.75;99305.06;5038405;28;20204;-90
2021/08/01 21:36:35;;;;;;;;;;;;;;;6.38;97.31;99302.59;5037841;28;19917;-90
2021/08/01 21:39:00;;;;;;;;;;;;;;;6.65;97.46;99306.06;5039333;28;19972;-89
2021/08/01 21:41:26;;;;;;;;;;;;;;;6.64;98.03;99312.25;5037964;28;20004;-90
2021/08/01 21:43:51;;;;;;;;;;;;;;;6.71;98.58;99321.66;5021997;28;19932;-92
2021/08/01 21:46:17;;;;;;;;;;;;;;;6.76;96.92;99326.75;5021321;28;19972;-89
2021/08/01 21:48:43;;;;;;;;;;;;;;;6.66;97.58;99327.06;5021255;28;19949;-90
2021/08/01 21:51:15;;;;;;;;;;;;;;;6.84;96.16;99329.97;5036451;28;20303;-90
2021/08/01 21:53:41;;;;;;;;;;;;;;;6.64;97.04;99330.69;5036878;28;19953;-90
2021/08/01 21:56:07;;;;;;;;;;;;;;;6.75;97.60;99335.56;5037655;28;20160;-89
2021/08/01 21:58:32;;;;;;;;;;;;;;;6.68;97.29;99338.41;5037791;28;19921;-90
2021/08/01 22:01:00;;;;;;;;;;;;;;;6.72;98.22;99345.28;5037252;28;20331;-91
2021/08/01 22:03:27;;;;;;;;;;;;;;;6.67;97.62;99346.34;5037635;28;19921;-92
2021/08/01 22:05:56;;;;;;;;;;;;;;;6.59;97.75;99346.63;5037014;28;19932;-92
2021/08/01 22:08:24;;;;;;;;;;;;;;;6.52;95.81;99345.09;5038023;28;19965;-91
2021/08/01 22:10:49;;;;;;;;;;;;;;;6.53;95.88;99345.06;5037429;28;19974;-92
2021/08/01 22:13:17;;;;;;;;;;;;;;;6.80;95.79;99344.19;5037606;28;20011;-91
2021/08/01 22:15:43;;;;;;;;;;;;;;;6.79;95.50;99345.09;5038163;28;19921;-92
2021/08/01 22:18:10;;;;;;;;;;;;;;;6.64;95.99;99347.34;5037844;28;20014;-91
2021/08/01 22:20:35;;;;;;;;;;;;;;;6.61;94.52;99341.31;5038219;28;19979;-91
2021/08/01 22:23:01;;;;;;;;;;;;;;;6.51;95.93;99346.88;5037467;28;20291;-92
2021/08/01 22:25:27;;;;;;;;;;;;;;;6.60;96.18;99332.53;5037637;28;19964;-90
2021/08/01 22:27:52;;;;;;;;;;;;;;;6.45;95.52;99339.19;5038027;28;19979;-92
2021/08/01 22:30:18;;;;;;;;;;;;;;;6.54;96.25;99344.16;5036704;28;19921;-90
2021/08/01 22:32:43;;;;;;;;;;;;;;;6.50;95.32;99350.41;5037684;28;19964;-90
2021/08/01 22:35:10;;;;;;;;;;;;;;;6.57;96.04;99343.16;5036530;28;19971;-90
2021/08/01 22:37:36;;;;;;;;;;;;;;;6.69;95.20;99349.81;5036554;28;20260;-90
2021/08/01 22:40:03;;;;;;;;;;;;;;;6.74;95.00;99342.63;5037977;28;19975;-92
2021/08/01 22:42:30;;;;;;;;;;;;;;;6.62;96.40;99349.16;5037731;28;19913;-91
2021/08/01 22:44:56;;;;;;;;;;;;;;;6.72;95.35;99350.56;5037832;28;20315;-91
2021/08/01 22:47:23;;;;;;;;;;;;;;;6.64;95.67;99355.22;5037097;28;19928;-91
2021/08/01 22:49:49;;;;;;;;;;;;;;;6.75;96.06;99354.88;5034617;28;20258;-90
2021/08/01 22:52:14;;;;;;;;;;;;;;;6.53;96.42;99357.38;5036350;28;20011;-91
2021/08/01 22:54:41;;;;;;;;;;;;;;;6.65;96.75;99353.44;5036639;28;19921;-91
2021/08/01 22:57:06;;;;;;;;;;;;;;;6.40;95.55;99356.03;5037288;28;19917;-89
2021/08/01 22:59:31;;;;;;;;;;;;;;;6.45;94.91;99359.41;5037720;28;20284;-89
2021/08/01 23:02:02;;;;;;;;;;;;;;;6.52;94.72;99345.09;5036703;28;20120;-89
2021/08/01 23:04:33;;;;;;;;;;;;;;;6.28;94.64;99358.16;5035702;28;19916;-91
2021/08/01 23:07:12;;;;;;;;;;;;;;;6.53;93.81;99349.47;5035816;28;19921;-89
